createdAt,value
2023-03-03T00:01:00.618Z,40.50
2023-03-03T00:03:54.777Z,45.10
2023-03-03T00:06:48.600Z,43.60
2023-03-03T00:09:42.270Z,46.10
2023-03-03T00:12:43.869Z,46.60
2023-03-03T00:15:38.833Z,46.90
2023-03-03T00:18:37.897Z,48.50
2023-03-03T00:21:34.466Z,44.30
2023-03-03T00:24:37.870Z,46.30
2023-03-03T00:27:37.009Z,49.70
2023-03-03T00:30:31.681Z,47.90
2023-03-03T00:33:34.706Z,43.60
2023-03-03T00:36:37.684Z,47.50
2023-03-03T00:39:37.375Z,44.90
2023-03-03T00:42:36.190Z,47.00
2023-03-03T00:45:44.503Z,46.70
2023-03-03T00:48:45.768Z,42.70
2023-03-03T00:51:39.698Z,44.60
2023-03-03T00:54:33.468Z,46.10
2023-03-03T00:57:27.272Z,45.60
2023-03-03T01:00:21.864Z,46.20
2023-03-03T01:03:20.087Z,45.60
2023-03-03T01:06:15.370Z,46.20
2023-03-03T01:09:09.157Z,47.20
2023-03-03T01:12:03.006Z,45.60
2023-03-03T01:14:56.832Z,45.20
2023-03-03T01:17:50.998Z,47.60
2023-03-03T01:20:44.819Z,45.30
2023-03-03T01:23:38.988Z,44.60
2023-03-03T01:26:32.656Z,45.40
2023-03-03T01:29:26.395Z,46.00
2023-03-03T01:32:20.175Z,48.90
2023-03-03T01:35:14.273Z,48.20
2023-03-03T01:38:08.146Z,46.90
2023-03-03T01:41:02.667Z,48.70
2023-03-03T01:43:56.726Z,50.60
2023-03-03T01:47:01.369Z,48.10
2023-03-03T01:49:59.959Z,49.10
2023-03-03T01:52:53.645Z,45.60
2023-03-03T01:55:50.842Z,46.40
2023-03-03T01:58:50.868Z,46.50
2023-03-03T02:01:47.046Z,46.00
2023-03-03T02:04:41.618Z,52.50
2023-03-03T02:07:37.003Z,49.80
2023-03-03T02:10:31.554Z,45.90
2023-03-03T02:13:25.335Z,49.60
2023-03-03T02:16:19.284Z,48.40
2023-03-03T02:19:42.830Z,49.20
2023-03-03T02:22:48.868Z,48.90
2023-03-03T02:25:58.571Z,48.30
2023-03-03T02:31:45.690Z,49.30
2023-03-03T02:34:52.246Z,51.40
2023-03-03T02:37:46.367Z,48.70
2023-03-03T02:40:45.232Z,48.40
2023-03-03T02:43:50.789Z,49.30
2023-03-03T02:46:46.283Z,50.40
2023-03-03T02:49:40.795Z,48.90
2023-03-03T02:52:34.500Z,51.50
2023-03-03T02:55:28.470Z,48.40
2023-03-03T02:58:22.425Z,46.30
2023-03-03T03:01:16.341Z,51.50
2023-03-03T03:04:14.200Z,52.40
2023-03-03T03:07:08.012Z,51.20
2023-03-03T03:10:01.826Z,51.60
2023-03-03T03:12:55.634Z,49.20
2023-03-03T03:15:51.065Z,51.90
2023-03-03T03:18:44.754Z,54.90
2023-03-03T03:21:38.589Z,48.80
2023-03-03T03:24:32.383Z,51.10
2023-03-03T03:27:26.114Z,51.90
2023-03-03T03:30:20.749Z,47.80
2023-03-03T03:33:14.761Z,49.70
2023-03-03T03:36:10.429Z,53.30
2023-03-03T03:39:06.368Z,55.10
2023-03-03T03:42:00.145Z,48.50
2023-03-03T03:44:53.828Z,50.00
2023-03-03T03:47:47.816Z,50.00
2023-03-03T03:50:41.755Z,49.50
2023-03-03T03:53:35.450Z,49.10
2023-03-03T03:56:29.269Z,50.60
2023-03-03T03:59:23.041Z,56.10
2023-03-03T04:02:16.983Z,49.00
2023-03-03T04:05:12.675Z,49.00
2023-03-03T04:08:06.913Z,46.80
2023-03-03T04:11:00.638Z,47.90
2023-03-03T04:13:54.398Z,51.70
2023-03-03T04:16:48.146Z,52.10
2023-03-03T04:19:41.919Z,52.40
2023-03-03T04:22:36.024Z,52.70
2023-03-03T04:25:29.826Z,52.90
2023-03-03T04:28:25.199Z,52.60
2023-03-03T04:31:20.464Z,51.60
2023-03-03T04:34:14.154Z,51.20
2023-03-03T04:37:07.816Z,59.50
2023-03-03T04:40:01.598Z,49.70
2023-03-03T04:42:51.245Z,51.20
2023-03-03T04:45:45.627Z,52.20
2023-03-03T04:48:39.592Z,49.00
2023-03-03T04:51:32.990Z,52.20
2023-03-03T04:54:26.667Z,51.20
2023-03-03T04:57:20.389Z,49.90
2023-03-03T05:00:16.728Z,50.90
2023-03-03T05:03:12.051Z,53.50
2023-03-03T05:06:06.004Z,49.80
2023-03-03T05:08:59.870Z,51.60
2023-03-03T05:11:53.830Z,49.20
2023-03-03T05:14:47.707Z,54.50
2023-03-03T05:17:41.498Z,50.90
2023-03-03T05:20:35.270Z,56.40
2023-03-03T05:23:29.103Z,50.40
2023-03-03T05:26:22.928Z,51.90
2023-03-03T05:29:16.630Z,56.10
2023-03-03T05:32:10.409Z,51.00
2023-03-03T05:35:04.326Z,59.60
2023-03-03T05:37:50.893Z,57.10
2023-03-03T05:40:45.030Z,51.80
2023-03-03T05:43:38.736Z,54.00
2023-03-03T05:46:32.588Z,53.10
2023-03-03T05:49:26.426Z,53.10
2023-03-03T05:52:20.348Z,53.50
2023-03-03T05:55:15.308Z,54.30
2023-03-03T05:58:09.262Z,53.50
2023-03-03T06:01:02.934Z,59.20
2023-03-03T06:03:56.707Z,56.00
2023-03-03T06:06:50.834Z,59.90
2023-03-03T06:09:44.600Z,59.00
2023-03-03T06:12:39.102Z,65.50
2023-03-03T06:15:16.794Z,60.70
2023-03-03T06:18:10.690Z,56.90
2023-03-03T06:21:04.542Z,59.20
2023-03-03T06:23:58.543Z,60.60
2023-03-03T06:26:42.572Z,60.60
2023-03-03T06:29:36.267Z,63.00
2023-03-03T06:32:30.142Z,59.60
2023-03-03T06:35:23.806Z,59.30
2023-03-03T06:38:17.674Z,64.90
2023-03-03T06:41:11.627Z,60.00
2023-03-03T06:44:05.618Z,63.80
2023-03-03T06:46:59.253Z,62.00
2023-03-03T06:49:52.970Z,63.70
2023-03-03T06:52:46.825Z,60.80
2023-03-03T06:55:41.145Z,63.40
2023-03-03T06:58:37.712Z,59.70
2023-03-03T07:01:36.103Z,63.80
2023-03-03T07:04:34.421Z,61.00
2023-03-03T07:07:29.446Z,61.40
2023-03-03T07:10:28.901Z,61.80
2023-03-03T07:13:25.785Z,62.40
2023-03-03T07:16:21.159Z,62.30
2023-03-03T07:19:29.011Z,58.00
2023-03-03T07:22:26.253Z,56.20
2023-03-03T07:25:32.238Z,59.60
2023-03-03T07:28:29.564Z,61.10
2023-03-03T07:31:36.005Z,54.50
2023-03-03T07:34:39.840Z,54.50
2023-03-03T07:37:42.568Z,58.30
2023-03-03T07:40:46.545Z,61.90
2023-03-03T07:46:43.952Z,57.20
2023-03-03T07:49:39.671Z,52.60
2023-03-03T07:52:42.827Z,53.90
2023-03-03T07:55:40.972Z,53.90
2023-03-03T07:58:42.129Z,57.70
2023-03-03T08:01:45.175Z,51.90
2023-03-03T08:04:47.392Z,56.40
2023-03-03T08:07:41.184Z,51.60
2023-03-03T08:10:43.505Z,51.50
2023-03-03T08:13:38.061Z,58.00
2023-03-03T08:16:40.012Z,56.20
2023-03-03T08:19:35.163Z,52.80
2023-03-03T08:22:36.631Z,50.40
2023-03-03T08:25:30.166Z,50.00
2023-03-03T08:28:24.768Z,47.40
2023-03-03T08:31:34.388Z,48.20
2023-03-03T08:34:32.424Z,51.80
2023-03-03T08:37:26.129Z,50.70
2023-03-03T08:40:19.580Z,49.70
2023-03-03T08:43:17.053Z,46.60
2023-03-03T08:46:12.389Z,51.50
2023-03-03T08:49:06.129Z,47.80
2023-03-03T08:52:13.801Z,48.30
2023-03-03T08:55:08.873Z,51.80
2023-03-03T08:58:02.506Z,50.90
2023-03-03T09:00:56.322Z,46.60
2023-03-03T09:03:50.043Z,48.60
2023-03-03T09:06:43.688Z,46.20
2023-03-03T09:09:37.881Z,45.90
2023-03-03T09:12:37.190Z,47.80
2023-03-03T09:15:33.740Z,47.20
2023-03-03T09:18:37.450Z,45.00
2023-03-03T09:21:33.728Z,48.50
2023-03-03T09:24:31.856Z,43.20
2023-03-03T09:27:31.174Z,45.20
2023-03-03T09:30:40.454Z,46.00
2023-03-03T09:33:45.483Z,43.70
2023-03-03T09:36:41.245Z,41.80
2023-03-03T09:39:39.219Z,42.20
2023-03-03T09:43:00.698Z,44.60
2023-03-03T09:46:05.477Z,39.50
2023-03-03T09:49:16.255Z,39.30
2023-03-03T09:52:30.358Z,40.30
2023-03-03T09:55:38.773Z,40.80
2023-03-03T09:58:49.733Z,37.40
2023-03-03T10:02:01.049Z,39.60
2023-03-03T10:05:19.791Z,40.30
2023-03-03T10:08:36.143Z,37.90
2023-03-03T10:11:40.280Z,36.00
2023-03-03T10:18:05.354Z,35.80
2023-03-03T10:21:10.336Z,37.10
2023-03-03T10:24:21.048Z,33.20
2023-03-03T10:27:37.300Z,32.70
2023-03-03T10:30:58.561Z,31.30
2023-03-03T10:34:07.806Z,33.50
2023-03-03T10:37:27.726Z,32.90
2023-03-03T10:40:33.001Z,34.30
2023-03-03T10:43:51.071Z,34.60
2023-03-03T10:47:08.787Z,30.30
2023-03-03T10:50:17.121Z,31.30
2023-03-03T10:53:25.900Z,30.80
2023-03-03T10:56:52.047Z,28.60
2023-03-03T11:00:05.511Z,31.70
2023-03-03T11:03:30.604Z,30.90
2023-03-03T11:06:15.676Z,31.10
2023-03-03T11:09:25.737Z,31.30
2023-03-03T11:12:36.311Z,27.40
2023-03-03T11:15:59.843Z,29.70
2023-03-03T11:19:13.809Z,31.60
2023-03-03T11:22:23.860Z,29.60
2023-03-03T11:25:36.653Z,32.40
2023-03-03T11:28:57.282Z,29.40
2023-03-03T11:31:57.261Z,29.00
2023-03-03T11:35:04.577Z,28.70
2023-03-03T11:38:20.214Z,27.80
2023-03-03T11:41:24.690Z,28.90
2023-03-03T11:44:28.541Z,27.60
2023-03-03T11:47:28.531Z,22.10
2023-03-03T11:50:22.270Z,25.30
2023-03-03T11:53:33.939Z,26.80
2023-03-03T11:56:34.785Z,28.00
2023-03-03T12:00:06.040Z,25.70
2023-03-03T12:03:28.863Z,27.10
2023-03-03T12:06:34.713Z,25.20
2023-03-03T12:09:42.404Z,25.10
2023-03-03T12:12:26.344Z,27.00
2023-03-03T12:15:35.070Z,27.30
2023-03-03T12:18:56.029Z,25.90
2023-03-03T12:22:06.674Z,26.30
2023-03-03T12:25:28.594Z,24.30
2023-03-03T12:28:25.315Z,25.50
2023-03-03T12:31:36.832Z,25.70
2023-03-03T12:34:39.040Z,27.50
2023-03-03T12:38:10.824Z,25.50
2023-03-03T12:41:13.105Z,25.10
2023-03-03T12:44:17.020Z,29.70
2023-03-03T12:47:23.358Z,27.50
2023-03-03T12:50:36.354Z,25.80
2023-03-03T12:54:09.212Z,30.00
2023-03-03T12:57:14.184Z,26.40
2023-03-03T13:00:29.645Z,25.40
2023-03-03T13:03:53.356Z,27.70
2023-03-03T13:06:55.561Z,28.80
2023-03-03T13:10:05.354Z,28.70
2023-03-03T13:13:09.962Z,24.80
2023-03-03T13:16:16.785Z,23.60
2023-03-03T13:19:17.730Z,27.60
2023-03-03T13:22:18.446Z,25.00
2023-03-03T13:25:05.223Z,23.90
2023-03-03T13:28:07.498Z,25.50
2023-03-03T13:31:07.393Z,26.60
2023-03-03T13:34:02.966Z,23.80
2023-03-03T13:37:03.094Z,25.20
2023-03-03T13:40:05.276Z,24.50
2023-03-03T13:43:06.430Z,24.30
2023-03-03T13:46:09.640Z,22.60
2023-03-03T13:49:41.904Z,23.90
2023-03-03T13:52:41.843Z,24.50
2023-03-03T13:55:43.197Z,23.20
2023-03-03T13:58:51.347Z,24.30
2023-03-03T14:02:02.931Z,24.90
2023-03-03T14:05:03.326Z,19.80
2023-03-03T14:08:03.491Z,23.70
2023-03-03T14:11:11.846Z,20.50
2023-03-03T14:14:39.628Z,22.30
2023-03-03T14:17:46.004Z,19.90
2023-03-03T14:20:47.599Z,19.30
2023-03-03T14:23:55.660Z,20.00
2023-03-03T14:26:55.284Z,19.20
2023-03-03T14:29:49.120Z,23.60
2023-03-03T14:32:56.352Z,18.40
2023-03-03T14:36:05.377Z,18.30
2023-03-03T14:38:59.151Z,23.60
2023-03-03T14:41:53.663Z,19.50
2023-03-03T14:44:59.228Z,19.20
2023-03-03T14:47:52.679Z,20.00
2023-03-03T14:50:52.311Z,18.70
2023-03-03T14:53:50.081Z,21.00
2023-03-03T14:57:04.731Z,19.40
2023-03-03T15:00:27.440Z,18.40
2023-03-03T15:03:29.851Z,18.60
2023-03-03T15:06:43.911Z,18.60
2023-03-03T15:09:43.274Z,17.00
2023-03-03T15:12:44.188Z,17.50
2023-03-03T15:15:50.303Z,18.50
2023-03-03T15:19:35.036Z,17.80
2023-03-03T15:22:47.883Z,18.20
2023-03-03T15:25:54.698Z,16.30
2023-03-03T15:29:06.911Z,15.90
2023-03-03T15:32:06.910Z,17.10
2023-03-03T15:35:14.672Z,15.10
2023-03-03T15:38:27.709Z,17.00
2023-03-03T15:41:37.398Z,14.50
2023-03-03T15:44:39.531Z,16.90
2023-03-03T15:48:07.694Z,16.30
2023-03-03T15:51:31.889Z,15.30
2023-03-03T15:54:41.531Z,15.10
2023-03-03T15:57:47.876Z,16.50
2023-03-03T16:00:56.636Z,14.70
2023-03-03T16:03:58.855Z,14.30
2023-03-03T16:07:07.055Z,15.80
2023-03-03T16:10:13.293Z,13.90
2023-03-03T16:13:32.359Z,14.00
2023-03-03T16:16:39.750Z,15.20
2023-03-03T16:19:46.705Z,14.90
2023-03-03T16:23:10.375Z,12.50
2023-03-03T16:26:15.018Z,12.50
2023-03-03T16:29:33.578Z,13.50
2023-03-03T16:32:39.220Z,12.60
2023-03-03T16:35:39.807Z,15.40
2023-03-03T16:38:39.524Z,14.80
2023-03-03T16:41:43.224Z,12.20
2023-03-03T16:44:48.698Z,13.90
2023-03-03T16:48:03.862Z,12.50
2023-03-03T16:51:15.586Z,13.90
2023-03-03T16:54:16.221Z,13.90
2023-03-03T16:57:25.104Z,13.50
2023-03-03T17:00:22.334Z,12.00
2023-03-03T17:03:52.112Z,12.30
2023-03-03T17:06:51.152Z,14.50
2023-03-03T17:09:58.904Z,14.00
2023-03-03T17:13:13.414Z,13.00
2023-03-03T17:16:18.781Z,13.70
2023-03-03T17:19:29.526Z,14.10
2023-03-03T17:22:32.683Z,14.40
2023-03-03T17:25:51.677Z,12.60
2023-03-03T17:28:59.411Z,14.00
2023-03-03T17:32:08.484Z,17.70
2023-03-03T17:35:23.135Z,19.10
2023-03-03T17:38:26.992Z,18.10
2023-03-03T17:41:29.438Z,17.10
2023-03-03T17:44:36.485Z,13.30
2023-03-03T17:47:48.149Z,13.90
2023-03-03T17:51:07.340Z,16.20
2023-03-03T17:54:22.218Z,16.70
2023-03-03T17:57:34.068Z,16.30
2023-03-03T18:00:44.173Z,19.60
2023-03-03T18:04:08.002Z,18.10
2023-03-03T18:07:20.920Z,18.70
2023-03-03T18:10:52.339Z,13.60
2023-03-03T18:14:17.997Z,17.30
2023-03-03T18:17:37.312Z,16.40
2023-03-03T18:21:00.774Z,17.60
2023-03-03T18:24:14.576Z,19.60
2023-03-03T18:27:39.516Z,16.20
2023-03-03T18:30:52.689Z,16.70
2023-03-03T18:34:03.575Z,17.40
2023-03-03T18:36:59.397Z,16.30
2023-03-03T18:40:27.956Z,15.40
2023-03-03T18:44:04.588Z,20.30
2023-03-03T18:46:59.860Z,18.80
2023-03-03T18:50:04.201Z,19.30
2023-03-03T18:53:27.416Z,22.80
2023-03-03T18:57:06.659Z,22.90
2023-03-03T19:00:25.712Z,19.90
2023-03-03T19:03:32.565Z,22.90
2023-03-03T19:07:11.366Z,21.10
2023-03-03T19:10:28.573Z,23.00
2023-03-03T19:14:12.456Z,21.80
2023-03-03T19:17:54.237Z,23.10
2023-03-03T19:20:54.344Z,23.30
2023-03-03T19:24:00.099Z,24.10
2023-03-03T19:27:11.636Z,25.10
2023-03-03T19:30:43.522Z,24.20
2023-03-03T19:33:56.449Z,23.40
2023-03-03T19:37:07.155Z,28.90
2023-03-03T19:40:12.919Z,24.50
2023-03-03T19:43:23.791Z,29.00
2023-03-03T19:46:37.102Z,25.80
2023-03-03T19:49:53.732Z,27.90
2023-03-03T19:52:57.813Z,26.10
2023-03-03T19:56:17.300Z,25.60
2023-03-03T19:59:27.712Z,25.00
2023-03-03T20:02:41.821Z,26.60
2023-03-03T20:05:58.060Z,31.30
2023-03-03T20:08:51.202Z,25.70
2023-03-03T20:12:01.491Z,26.80
2023-03-03T20:15:10.096Z,27.50
2023-03-03T20:18:28.418Z,26.50
2023-03-03T20:21:34.093Z,26.20
2023-03-03T20:24:57.570Z,26.40
2023-03-03T20:28:01.790Z,26.10
2023-03-03T20:31:07.184Z,25.80
2023-03-03T20:34:12.167Z,26.50
2023-03-03T20:37:12.749Z,28.90
2023-03-03T20:40:37.023Z,26.50
2023-03-03T20:43:46.968Z,27.70
2023-03-03T20:46:54.601Z,28.00
2023-03-03T20:50:06.314Z,24.50
2023-03-03T20:53:15.515Z,28.60
2023-03-03T20:56:17.609Z,25.90
2023-03-03T20:59:25.668Z,27.70
2023-03-03T21:02:28.490Z,27.60
2023-03-03T21:05:24.637Z,26.60
2023-03-03T21:08:18.247Z,28.30
2023-03-03T21:11:13.427Z,26.70
2023-03-03T21:14:21.810Z,27.80
2023-03-03T21:17:32.697Z,30.00
2023-03-03T21:20:32.415Z,25.90
2023-03-03T21:23:12.880Z,28.40
2023-03-03T21:26:07.152Z,28.70
2023-03-03T21:29:07.362Z,29.60
2023-03-03T21:32:02.496Z,28.20
2023-03-03T21:35:18.535Z,26.70
2023-03-03T21:38:12.132Z,26.80
2023-03-03T21:41:07.274Z,26.60
2023-03-03T21:44:00.910Z,29.40
2023-03-03T21:46:55.256Z,26.70
2023-03-03T21:49:52.245Z,25.50
2023-03-03T21:52:45.863Z,27.00
2023-03-03T21:55:39.576Z,29.40
2023-03-03T21:58:33.136Z,28.00
2023-03-03T22:01:26.748Z,27.70
2023-03-03T22:04:20.527Z,28.20
2023-03-03T22:07:14.232Z,26.40
2023-03-03T22:10:10.024Z,26.80
2023-03-03T22:13:03.673Z,26.90
2023-03-03T22:15:57.393Z,28.30
2023-03-03T22:18:51.088Z,24.00
2023-03-03T22:21:48.124Z,29.80
2023-03-03T22:24:42.000Z,27.20
2023-03-03T22:27:35.758Z,27.70
2023-03-03T22:30:29.392Z,26.50
2023-03-03T22:33:23.120Z,24.90
2023-03-03T22:36:17.119Z,23.80
2023-03-03T22:39:10.792Z,26.50
2023-03-03T22:42:04.493Z,25.60
2023-03-03T22:44:58.083Z,25.60
2023-03-03T22:47:51.661Z,27.80
2023-03-03T22:50:45.668Z,27.00
2023-03-03T22:53:39.244Z,28.50
2023-03-03T22:56:32.833Z,26.60
2023-03-03T22:59:26.533Z,23.90
2023-03-03T23:02:20.041Z,25.20
2023-03-03T23:05:14.201Z,27.70
2023-03-03T23:08:10.888Z,28.10
2023-03-03T23:11:04.529Z,24.00
2023-03-03T23:13:58.111Z,27.10
2023-03-03T23:16:51.836Z,26.60
2023-03-03T23:19:46.262Z,27.20
2023-03-03T23:22:39.895Z,26.90
2023-03-03T23:25:34.320Z,25.40
2023-03-03T23:28:27.846Z,24.40
2023-03-03T23:31:12.365Z,24.00
2023-03-03T23:34:06.172Z,28.50
2023-03-03T23:36:59.793Z,28.10
2023-03-03T23:39:53.392Z,24.10
2023-03-03T23:42:47.305Z,24.80
2023-03-03T23:45:40.909Z,21.90
2023-03-03T23:48:34.879Z,26.30
2023-03-03T23:51:28.684Z,22.00
2023-03-03T23:54:22.421Z,21.60
2023-03-03T23:57:16.642Z,23.00
